sensor_id;sensor_type;location;lat;lon;timestamp;P1;durP1;ratioP1;P2;durP2;ratioP2
13560;SDS011;6852;51.686;5.314;2022-12-29T00:01:59;1.53;;;1.30;;
13560;SDS011;6852;51.686;5.314;2022-12-29T00:04:26;1.17;;;0.97;;
13560;SDS011;6852;51.686;5.314;2022-12-29T00:06:53;1.40;;;1.00;;
13560;SDS011;6852;51.686;5.314;2022-12-29T00:09:21;1.57;;;1.00;;
13560;SDS011;6852;51.686;5.314;2022-12-29T00:11:48;1.10;;;1.00;;
13560;SDS011;6852;51.686;5.314;2022-12-29T00:14:16;1.50;;;1.00;;
13560;SDS011;6852;51.686;5.314;2022-12-29T00:17:01;1.20;;;1.03;;
13560;SDS011;6852;51.686;5.314;2022-12-29T00:19:28;3.37;;;1.00;;
13560;SDS011;6852;51.686;5.314;2022-12-29T00:22:13;1.00;;;0.90;;
13560;SDS011;6852;51.686;5.314;2022-12-29T00:24:59;1.10;;;0.90;;
13560;SDS011;6852;51.686;5.314;2022-12-29T00:27:26;0.97;;;0.87;;
13560;SDS011;6852;51.686;5.314;2022-12-29T00:30:13;1.90;;;0.70;;
13560;SDS011;6852;51.686;5.314;2022-12-29T00:38:40;0.70;;;0.70;;
13560;SDS011;6852;51.686;5.314;2022-12-29T00:41:28;1.40;;;0.70;;
13560;SDS011;6852;51.686;5.314;2022-12-29T00:44:13;2.37;;;0.40;;
13560;SDS011;6852;51.686;5.314;2022-12-29T00:46:41;1.20;;;0.70;;
13560;SDS011;6852;51.686;5.314;2022-12-29T00:49:10;1.40;;;0.60;;
13560;SDS011;6852;51.686;5.314;2022-12-29T00:52:01;1.87;;;0.70;;
13560;SDS011;6852;51.686;5.314;2022-12-29T00:54:30;1.70;;;1.03;;
13560;SDS011;6852;51.686;5.314;2022-12-29T00:57:02;1.43;;;0.70;;
13560;SDS011;6852;51.686;5.314;2022-12-29T00:59:31;0.50;;;0.50;;
13560;SDS011;6852;51.686;5.314;2022-12-29T01:01:58;1.00;;;0.63;;
13560;SDS011;6852;51.686;5.314;2022-12-29T01:04:25;1.90;;;0.70;;
13560;SDS011;6852;51.686;5.314;2022-12-29T01:06:52;0.63;;;0.50;;
13560;SDS011;6852;51.686;5.314;2022-12-29T01:09:20;0.57;;;0.57;;
13560;SDS011;6852;51.686;5.314;2022-12-29T01:12:06;1.43;;;0.77;;
13560;SDS011;6852;51.686;5.314;2022-12-29T01:14:33;0.80;;;0.70;;
13560;SDS011;6852;51.686;5.314;2022-12-29T01:17:01;0.87;;;0.80;;
13560;SDS011;6852;51.686;5.314;2022-12-29T01:19:28;1.10;;;0.90;;
13560;SDS011;6852;51.686;5.314;2022-12-29T01:21:55;2.47;;;0.83;;
13560;SDS011;6852;51.686;5.314;2022-12-29T01:24:22;0.87;;;0.80;;
13560;SDS011;6852;51.686;5.314;2022-12-29T01:26:49;2.20;;;1.00;;
13560;SDS011;6852;51.686;5.314;2022-12-29T01:29:16;1.33;;;0.70;;
13560;SDS011;6852;51.686;5.314;2022-12-29T01:31:43;2.10;;;0.67;;
13560;SDS011;6852;51.686;5.314;2022-12-29T01:34:10;1.43;;;1.00;;
13560;SDS011;6852;51.686;5.314;2022-12-29T01:36:37;1.10;;;0.80;;
13560;SDS011;6852;51.686;5.314;2022-12-29T01:39:03;1.43;;;0.80;;
13560;SDS011;6852;51.686;5.314;2022-12-29T01:41:30;1.63;;;0.67;;
13560;SDS011;6852;51.686;5.314;2022-12-29T01:43:58;1.07;;;0.80;;
13560;SDS011;6852;51.686;5.314;2022-12-29T01:51:42;1.97;;;0.80;;
13560;SDS011;6852;51.686;5.314;2022-12-29T01:54:11;1.33;;;0.57;;
13560;SDS011;6852;51.686;5.314;2022-12-29T01:56:45;0.83;;;0.60;;
13560;SDS011;6852;51.686;5.314;2022-12-29T01:59:15;0.67;;;0.60;;
13560;SDS011;6852;51.686;5.314;2022-12-29T02:01:47;1.00;;;0.50;;
13560;SDS011;6852;51.686;5.314;2022-12-29T02:04:14;1.20;;;0.60;;
13560;SDS011;6852;51.686;5.314;2022-12-29T02:06:47;3.30;;;0.90;;
13560;SDS011;6852;51.686;5.314;2022-12-29T02:09:19;2.73;;;0.50;;
13560;SDS011;6852;51.686;5.314;2022-12-29T02:11:48;0.60;;;0.37;;
13560;SDS011;6852;51.686;5.314;2022-12-29T02:14:15;3.83;;;0.50;;
13560;SDS011;6852;51.686;5.314;2022-12-29T02:53:14;2.00;;;0.50;;
13560;SDS011;6852;51.686;5.314;2022-12-29T02:55:49;2.53;;;0.60;;
13560;SDS011;6852;51.686;5.314;2022-12-29T02:58:20;2.60;;;0.40;;
13560;SDS011;6852;51.686;5.314;2022-12-29T03:06:34;2.03;;;0.40;;
13560;SDS011;6852;51.686;5.314;2022-12-29T03:12:03;2.40;;;0.40;;
13560;SDS011;6852;51.686;5.314;2022-12-29T03:14:49;1.33;;;0.40;;
13560;SDS011;6852;51.686;5.314;2022-12-29T03:17:58;1.60;;;0.53;;
13560;SDS011;6852;51.686;5.314;2022-12-29T03:20:38;1.60;;;0.60;;
13560;SDS011;6852;51.686;5.314;2022-12-29T03:23:10;2.40;;;0.70;;
13560;SDS011;6852;51.686;5.314;2022-12-29T03:25:40;0.70;;;0.40;;
13560;SDS011;6852;51.686;5.314;2022-12-29T03:28:16;2.27;;;0.70;;
13560;SDS011;6852;51.686;5.314;2022-12-29T03:30:48;1.07;;;0.43;;
13560;SDS011;6852;51.686;5.314;2022-12-29T03:33:16;2.03;;;0.40;;
13560;SDS011;6852;51.686;5.314;2022-12-29T03:35:46;0.60;;;0.50;;
13560;SDS011;6852;51.686;5.314;2022-12-29T03:38:24;3.80;;;0.60;;
13560;SDS011;6852;51.686;5.314;2022-12-29T03:40:58;2.43;;;0.83;;
13560;SDS011;6852;51.686;5.314;2022-12-29T03:43:27;1.53;;;0.43;;
13560;SDS011;6852;51.686;5.314;2022-12-29T03:45:55;2.53;;;0.50;;
13560;SDS011;6852;51.686;5.314;2022-12-29T03:48:22;2.20;;;0.73;;
13560;SDS011;6852;51.686;5.314;2022-12-29T03:50:49;2.53;;;0.40;;
13560;SDS011;6852;51.686;5.314;2022-12-29T03:53:15;3.43;;;0.60;;
13560;SDS011;6852;51.686;5.314;2022-12-29T03:55:43;1.53;;;0.30;;
13560;SDS011;6852;51.686;5.314;2022-12-29T03:58:10;2.30;;;0.53;;
13560;SDS011;6852;51.686;5.314;2022-12-29T04:00:37;2.50;;;0.87;;
13560;SDS011;6852;51.686;5.314;2022-12-29T04:03:04;1.60;;;0.60;;
13560;SDS011;6852;51.686;5.314;2022-12-29T04:05:31;2.07;;;0.40;;
13560;SDS011;6852;51.686;5.314;2022-12-29T04:07:58;0.90;;;0.37;;
13560;SDS011;6852;51.686;5.314;2022-12-29T04:10:24;2.43;;;0.80;;
13560;SDS011;6852;51.686;5.314;2022-12-29T04:12:51;1.70;;;0.77;;
13560;SDS011;6852;51.686;5.314;2022-12-29T04:15:18;3.03;;;0.70;;
13560;SDS011;6852;51.686;5.314;2022-12-29T04:17:45;4.10;;;0.70;;
13560;SDS011;6852;51.686;5.314;2022-12-29T04:20:11;3.47;;;0.70;;
13560;SDS011;6852;51.686;5.314;2022-12-29T04:22:58;1.07;;;0.47;;
13560;SDS011;6852;51.686;5.314;2022-12-29T04:25:32;1.33;;;0.40;;
13560;SDS011;6852;51.686;5.314;2022-12-29T04:27:59;2.50;;;0.67;;
13560;SDS011;6852;51.686;5.314;2022-12-29T04:30:26;1.30;;;0.60;;
13560;SDS011;6852;51.686;5.314;2022-12-29T04:32:53;2.30;;;0.63;;
13560;SDS011;6852;51.686;5.314;2022-12-29T04:35:20;3.70;;;0.50;;
13560;SDS011;6852;51.686;5.314;2022-12-29T04:37:47;0.60;;;0.50;;
13560;SDS011;6852;51.686;5.314;2022-12-29T04:40:14;2.97;;;0.77;;
13560;SDS011;6852;51.686;5.314;2022-12-29T04:42:41;3.67;;;1.13;;
13560;SDS011;6852;51.686;5.314;2022-12-29T04:45:08;2.97;;;0.70;;
13560;SDS011;6852;51.686;5.314;2022-12-29T04:47:35;3.97;;;1.10;;
13560;SDS011;6852;51.686;5.314;2022-12-29T04:50:03;4.00;;;1.63;;
13560;SDS011;6852;51.686;5.314;2022-12-29T04:52:30;3.93;;;0.90;;
13560;SDS011;6852;51.686;5.314;2022-12-29T04:54:57;2.43;;;0.67;;
13560;SDS011;6852;51.686;5.314;2022-12-29T04:57:23;2.23;;;0.80;;
13560;SDS011;6852;51.686;5.314;2022-12-29T04:59:50;4.17;;;0.90;;
13560;SDS011;6852;51.686;5.314;2022-12-29T05:02:17;7.03;;;0.90;;
13560;SDS011;6852;51.686;5.314;2022-12-29T05:04:44;3.77;;;1.00;;
13560;SDS011;6852;51.686;5.314;2022-12-29T05:07:12;1.03;;;0.53;;
13560;SDS011;6852;51.686;5.314;2022-12-29T05:09:39;2.47;;;1.07;;
13560;SDS011;6852;51.686;5.314;2022-12-29T05:12:06;2.37;;;0.80;;
13560;SDS011;6852;51.686;5.314;2022-12-29T05:14:33;3.60;;;1.00;;
13560;SDS011;6852;51.686;5.314;2022-12-29T05:16:59;5.77;;;1.20;;
13560;SDS011;6852;51.686;5.314;2022-12-29T05:19:26;3.43;;;0.77;;
13560;SDS011;6852;51.686;5.314;2022-12-29T05:21:53;4.30;;;0.90;;
13560;SDS011;6852;51.686;5.314;2022-12-29T05:24:20;3.57;;;0.80;;
13560;SDS011;6852;51.686;5.314;2022-12-29T05:26:47;3.03;;;0.87;;
13560;SDS011;6852;51.686;5.314;2022-12-29T05:29:14;3.57;;;0.70;;
13560;SDS011;6852;51.686;5.314;2022-12-29T05:31:43;2.30;;;0.70;;
13560;SDS011;6852;51.686;5.314;2022-12-29T05:34:13;3.13;;;1.27;;
13560;SDS011;6852;51.686;5.314;2022-12-29T05:36:40;2.87;;;0.60;;
13560;SDS011;6852;51.686;5.314;2022-12-29T05:39:07;2.63;;;0.80;;
13560;SDS011;6852;51.686;5.314;2022-12-29T05:41:34;3.40;;;0.70;;
13560;SDS011;6852;51.686;5.314;2022-12-29T05:44:01;3.80;;;0.97;;
13560;SDS011;6852;51.686;5.314;2022-12-29T05:46:28;5.40;;;0.80;;
13560;SDS011;6852;51.686;5.314;2022-12-29T05:48:55;3.73;;;0.73;;
13560;SDS011;6852;51.686;5.314;2022-12-29T05:51:22;4.77;;;0.80;;
13560;SDS011;6852;51.686;5.314;2022-12-29T05:53:48;3.97;;;0.80;;
13560;SDS011;6852;51.686;5.314;2022-12-29T05:56:15;2.03;;;0.63;;
13560;SDS011;6852;51.686;5.314;2022-12-29T05:58:42;2.47;;;0.83;;
13560;SDS011;6852;51.686;5.314;2022-12-29T06:01:09;3.50;;;0.80;;
13560;SDS011;6852;51.686;5.314;2022-12-29T06:03:36;1.63;;;1.07;;
13560;SDS011;6852;51.686;5.314;2022-12-29T06:06:08;3.20;;;0.80;;
13560;SDS011;6852;51.686;5.314;2022-12-29T06:08:34;4.33;;;0.93;;
13560;SDS011;6852;51.686;5.314;2022-12-29T06:11:01;4.57;;;0.50;;
13560;SDS011;6852;51.686;5.314;2022-12-29T06:13:28;6.10;;;1.40;;
13560;SDS011;6852;51.686;5.314;2022-12-29T06:15:55;4.10;;;0.90;;
13560;SDS011;6852;51.686;5.314;2022-12-29T06:18:22;3.80;;;1.00;;
13560;SDS011;6852;51.686;5.314;2022-12-29T06:20:48;2.83;;;0.87;;
13560;SDS011;6852;51.686;5.314;2022-12-29T06:23:15;3.47;;;0.93;;
13560;SDS011;6852;51.686;5.314;2022-12-29T06:25:42;3.40;;;1.03;;
13560;SDS011;6852;51.686;5.314;2022-12-29T06:28:09;3.90;;;0.77;;
13560;SDS011;6852;51.686;5.314;2022-12-29T06:30:36;3.97;;;0.80;;
13560;SDS011;6852;51.686;5.314;2022-12-29T06:33:04;4.73;;;0.83;;
13560;SDS011;6852;51.686;5.314;2022-12-29T06:35:30;1.20;;;0.67;;
13560;SDS011;6852;51.686;5.314;2022-12-29T06:37:57;3.57;;;1.47;;
13560;SDS011;6852;51.686;5.314;2022-12-29T06:40:24;3.43;;;0.60;;
13560;SDS011;6852;51.686;5.314;2022-12-29T06:42:51;3.07;;;0.70;;
13560;SDS011;6852;51.686;5.314;2022-12-29T06:45:17;7.10;;;2.60;;
13560;SDS011;6852;51.686;5.314;2022-12-29T06:47:44;4.83;;;0.70;;
13560;SDS011;6852;51.686;5.314;2022-12-29T06:50:11;2.63;;;0.87;;
13560;SDS011;6852;51.686;5.314;2022-12-29T06:52:37;2.77;;;0.73;;
13560;SDS011;6852;51.686;5.314;2022-12-29T06:55:04;5.43;;;1.10;;
13560;SDS011;6852;51.686;5.314;2022-12-29T06:57:32;1.67;;;0.60;;
13560;SDS011;6852;51.686;5.314;2022-12-29T06:59:59;3.23;;;0.77;;
13560;SDS011;6852;51.686;5.314;2022-12-29T07:02:25;4.37;;;0.70;;
13560;SDS011;6852;51.686;5.314;2022-12-29T07:04:52;2.20;;;0.57;;
13560;SDS011;6852;51.686;5.314;2022-12-29T07:07:20;2.97;;;0.77;;
13560;SDS011;6852;51.686;5.314;2022-12-29T07:09:47;4.00;;;0.67;;
13560;SDS011;6852;51.686;5.314;2022-12-29T07:12:14;4.00;;;0.83;;
13560;SDS011;6852;51.686;5.314;2022-12-29T07:14:40;6.73;;;0.67;;
13560;SDS011;6852;51.686;5.314;2022-12-29T07:17:08;5.33;;;0.63;;
13560;SDS011;6852;51.686;5.314;2022-12-29T07:19:36;2.97;;;0.77;;
13560;SDS011;6852;51.686;5.314;2022-12-29T07:22:02;4.07;;;0.80;;
13560;SDS011;6852;51.686;5.314;2022-12-29T07:24:29;7.37;;;1.00;;
13560;SDS011;6852;51.686;5.314;2022-12-29T07:26:56;4.23;;;0.90;;
13560;SDS011;6852;51.686;5.314;2022-12-29T07:29:23;5.03;;;0.90;;
13560;SDS011;6852;51.686;5.314;2022-12-29T07:31:50;3.00;;;0.60;;
13560;SDS011;6852;51.686;5.314;2022-12-29T07:34:17;5.80;;;0.97;;
13560;SDS011;6852;51.686;5.314;2022-12-29T07:36:44;3.97;;;0.80;;
13560;SDS011;6852;51.686;5.314;2022-12-29T07:39:11;1.77;;;0.80;;
13560;SDS011;6852;51.686;5.314;2022-12-29T07:41:37;3.30;;;0.40;;
13560;SDS011;6852;51.686;5.314;2022-12-29T07:44:04;2.10;;;0.70;;
13560;SDS011;6852;51.686;5.314;2022-12-29T07:46:31;5.33;;;1.10;;
13560;SDS011;6852;51.686;5.314;2022-12-29T07:49:18;6.50;;;1.00;;
13560;SDS011;6852;51.686;5.314;2022-12-29T07:51:44;5.90;;;0.97;;
13560;SDS011;6852;51.686;5.314;2022-12-29T07:54:11;7.20;;;1.13;;
13560;SDS011;6852;51.686;5.314;2022-12-29T07:56:38;7.57;;;1.07;;
13560;SDS011;6852;51.686;5.314;2022-12-29T07:59:05;2.80;;;1.03;;
13560;SDS011;6852;51.686;5.314;2022-12-29T08:01:32;3.03;;;0.90;;
13560;SDS011;6852;51.686;5.314;2022-12-29T08:03:59;5.83;;;0.97;;
13560;SDS011;6852;51.686;5.314;2022-12-29T08:06:26;6.87;;;1.10;;
13560;SDS011;6852;51.686;5.314;2022-12-29T08:08:53;3.80;;;1.37;;
13560;SDS011;6852;51.686;5.314;2022-12-29T08:11:22;5.00;;;0.90;;
13560;SDS011;6852;51.686;5.314;2022-12-29T08:13:49;2.93;;;0.80;;
13560;SDS011;6852;51.686;5.314;2022-12-29T08:16:16;8.97;;;1.20;;
13560;SDS011;6852;51.686;5.314;2022-12-29T08:18:43;4.53;;;1.17;;
13560;SDS011;6852;51.686;5.314;2022-12-29T08:21:10;2.67;;;0.80;;
13560;SDS011;6852;51.686;5.314;2022-12-29T08:23:37;7.83;;;1.43;;
13560;SDS011;6852;51.686;5.314;2022-12-29T08:26:04;2.83;;;1.20;;
13560;SDS011;6852;51.686;5.314;2022-12-29T08:28:32;9.13;;;1.63;;
13560;SDS011;6852;51.686;5.314;2022-12-29T08:31:00;6.03;;;1.17;;
13560;SDS011;6852;51.686;5.314;2022-12-29T08:33:28;3.37;;;0.97;;
13560;SDS011;6852;51.686;5.314;2022-12-29T08:35:59;6.77;;;1.40;;
13560;SDS011;6852;51.686;5.314;2022-12-29T08:38:27;4.63;;;1.17;;
13560;SDS011;6852;51.686;5.314;2022-12-29T08:40:55;6.00;;;1.57;;
13560;SDS011;6852;51.686;5.314;2022-12-29T08:43:23;6.70;;;1.10;;
13560;SDS011;6852;51.686;5.314;2022-12-29T08:45:50;3.53;;;1.00;;
13560;SDS011;6852;51.686;5.314;2022-12-29T08:48:17;6.70;;;0.90;;
13560;SDS011;6852;51.686;5.314;2022-12-29T08:50:46;5.00;;;1.23;;
13560;SDS011;6852;51.686;5.314;2022-12-29T08:53:13;6.67;;;1.37;;
13560;SDS011;6852;51.686;5.314;2022-12-29T08:55:40;6.73;;;1.00;;
13560;SDS011;6852;51.686;5.314;2022-12-29T08:58:06;4.53;;;1.10;;
13560;SDS011;6852;51.686;5.314;2022-12-29T09:00:33;3.40;;;1.20;;
13560;SDS011;6852;51.686;5.314;2022-12-29T09:03:01;6.57;;;0.90;;
13560;SDS011;6852;51.686;5.314;2022-12-29T09:05:28;5.70;;;1.07;;
13560;SDS011;6852;51.686;5.314;2022-12-29T09:07:54;12.50;;;1.30;;
13560;SDS011;6852;51.686;5.314;2022-12-29T09:10:21;6.97;;;1.47;;
13560;SDS011;6852;51.686;5.314;2022-12-29T09:12:48;4.80;;;1.27;;
13560;SDS011;6852;51.686;5.314;2022-12-29T09:15:15;6.63;;;1.37;;
13560;SDS011;6852;51.686;5.314;2022-12-29T09:17:42;2.73;;;1.47;;
13560;SDS011;6852;51.686;5.314;2022-12-29T09:20:12;6.23;;;1.27;;
13560;SDS011;6852;51.686;5.314;2022-12-29T09:22:42;6.60;;;1.03;;
13560;SDS011;6852;51.686;5.314;2022-12-29T09:25:09;10.13;;;1.17;;
13560;SDS011;6852;51.686;5.314;2022-12-29T09:27:37;2.57;;;1.07;;
13560;SDS011;6852;51.686;5.314;2022-12-29T09:30:04;6.40;;;1.33;;
13560;SDS011;6852;51.686;5.314;2022-12-29T09:32:33;5.40;;;1.00;;
13560;SDS011;6852;51.686;5.314;2022-12-29T09:35:07;6.40;;;1.20;;
13560;SDS011;6852;51.686;5.314;2022-12-29T09:37:34;4.67;;;1.23;;
13560;SDS011;6852;51.686;5.314;2022-12-29T09:40:00;3.17;;;1.33;;
13560;SDS011;6852;51.686;5.314;2022-12-29T09:45:32;4.23;;;1.03;;
13560;SDS011;6852;51.686;5.314;2022-12-29T09:48:13;2.40;;;0.90;;
13560;SDS011;6852;51.686;5.314;2022-12-29T09:50:45;7.00;;;0.97;;
13560;SDS011;6852;51.686;5.314;2022-12-29T09:56:27;5.53;;;1.93;;
13560;SDS011;6852;51.686;5.314;2022-12-29T10:04:48;5.20;;;1.40;;
13560;SDS011;6852;51.686;5.314;2022-12-29T10:22:33;5.13;;;1.10;;
13560;SDS011;6852;51.686;5.314;2022-12-29T10:25:22;3.73;;;0.93;;
13560;SDS011;6852;51.686;5.314;2022-12-29T10:27:56;5.33;;;1.10;;
13560;SDS011;6852;51.686;5.314;2022-12-29T10:30:27;8.40;;;1.10;;
13560;SDS011;6852;51.686;5.314;2022-12-29T10:32:56;7.47;;;1.17;;
13560;SDS011;6852;51.686;5.314;2022-12-29T10:35:31;2.77;;;0.63;;
13560;SDS011;6852;51.686;5.314;2022-12-29T10:40:58;8.90;;;1.57;;
13560;SDS011;6852;51.686;5.314;2022-12-29T10:43:43;5.67;;;1.53;;
13560;SDS011;6852;51.686;5.314;2022-12-29T10:46:20;6.97;;;1.30;;
13560;SDS011;6852;51.686;5.314;2022-12-29T10:48:51;4.83;;;1.60;;
13560;SDS011;6852;51.686;5.314;2022-12-29T10:51:20;5.10;;;1.67;;
13560;SDS011;6852;51.686;5.314;2022-12-29T10:53:55;6.10;;;2.10;;
13560;SDS011;6852;51.686;5.314;2022-12-29T10:59:31;8.13;;;1.90;;
13560;SDS011;6852;51.686;5.314;2022-12-29T11:07:16;6.30;;;1.53;;
13560;SDS011;6852;51.686;5.314;2022-12-29T11:09:51;10.07;;;1.70;;
13560;SDS011;6852;51.686;5.314;2022-12-29T11:12:23;8.37;;;2.00;;
13560;SDS011;6852;51.686;5.314;2022-12-29T11:17:43;6.77;;;1.57;;
13560;SDS011;6852;51.686;5.314;2022-12-29T11:23:00;4.90;;;1.60;;
13560;SDS011;6852;51.686;5.314;2022-12-29T11:25:27;10.50;;;1.87;;
13560;SDS011;6852;51.686;5.314;2022-12-29T11:28:01;6.80;;;2.00;;
13560;SDS011;6852;51.686;5.314;2022-12-29T11:30:40;10.00;;;1.97;;
13560;SDS011;6852;51.686;5.314;2022-12-29T11:33:07;5.37;;;1.50;;
13560;SDS011;6852;51.686;5.314;2022-12-29T11:35:39;5.97;;;1.90;;
13560;SDS011;6852;51.686;5.314;2022-12-29T11:38:32;5.63;;;2.10;;
13560;SDS011;6852;51.686;5.314;2022-12-29T11:41:02;9.43;;;2.10;;
13560;SDS011;6852;51.686;5.314;2022-12-29T11:43:31;9.83;;;1.87;;
13560;SDS011;6852;51.686;5.314;2022-12-29T11:46:01;5.33;;;1.83;;
13560;SDS011;6852;51.686;5.314;2022-12-29T11:48:40;9.33;;;2.10;;
13560;SDS011;6852;51.686;5.314;2022-12-29T11:51:07;15.27;;;2.23;;
13560;SDS011;6852;51.686;5.314;2022-12-29T11:56:10;6.37;;;2.00;;
13560;SDS011;6852;51.686;5.314;2022-12-29T11:58:42;9.53;;;2.43;;
13560;SDS011;6852;51.686;5.314;2022-12-29T12:04:13;4.23;;;1.57;;
13560;SDS011;6852;51.686;5.314;2022-12-29T12:07:28;11.03;;;2.27;;
13560;SDS011;6852;51.686;5.314;2022-12-29T12:09:37;5.97;;;1.93;;
13560;SDS011;6852;51.686;5.314;2022-12-29T12:12:34;5.50;;;1.83;;
13560;SDS011;6852;51.686;5.314;2022-12-29T12:15:13;9.03;;;2.43;;
13560;SDS011;6852;51.686;5.314;2022-12-29T12:17:59;7.27;;;1.73;;
13560;SDS011;6852;51.686;5.314;2022-12-29T12:27:10;11.63;;;2.30;;
13560;SDS011;6852;51.686;5.314;2022-12-29T12:32:17;5.60;;;1.63;;
13560;SDS011;6852;51.686;5.314;2022-12-29T12:35:12;8.10;;;1.80;;
13560;SDS011;6852;51.686;5.314;2022-12-29T12:40:26;6.27;;;1.70;;
13560;SDS011;6852;51.686;5.314;2022-12-29T12:48:54;5.87;;;2.07;;
13560;SDS011;6852;51.686;5.314;2022-12-29T13:11:01;2.40;;;1.53;;
13560;SDS011;6852;51.686;5.314;2022-12-29T13:19:15;3.93;;;1.50;;
13560;SDS011;6852;51.686;5.314;2022-12-29T13:25:06;5.83;;;1.33;;
13560;SDS011;6852;51.686;5.314;2022-12-29T13:30:26;1.63;;;0.60;;
13560;SDS011;6852;51.686;5.314;2022-12-29T13:36:00;3.53;;;0.97;;
13560;SDS011;6852;51.686;5.314;2022-12-29T13:38:35;3.10;;;1.03;;
13560;SDS011;6852;51.686;5.314;2022-12-29T13:41:10;1.73;;;0.80;;
13560;SDS011;6852;51.686;5.314;2022-12-29T13:43:45;1.10;;;0.73;;
13560;SDS011;6852;51.686;5.314;2022-12-29T13:46:36;4.53;;;0.97;;
13560;SDS011;6852;51.686;5.314;2022-12-29T13:49:18;1.53;;;0.93;;
13560;SDS011;6852;51.686;5.314;2022-12-29T13:51:49;7.03;;;0.97;;
13560;SDS011;6852;51.686;5.314;2022-12-29T13:54:23;2.53;;;0.70;;
13560;SDS011;6852;51.686;5.314;2022-12-29T13:56:54;2.63;;;0.60;;
13560;SDS011;6852;51.686;5.314;2022-12-29T14:05:02;3.73;;;1.03;;
13560;SDS011;6852;51.686;5.314;2022-12-29T14:07:35;2.40;;;1.00;;
13560;SDS011;6852;51.686;5.314;2022-12-29T14:10:04;5.07;;;1.37;;
13560;SDS011;6852;51.686;5.314;2022-12-29T14:12:36;7.53;;;1.60;;
13560;SDS011;6852;51.686;5.314;2022-12-29T14:17:37;7.70;;;1.20;;
13560;SDS011;6852;51.686;5.314;2022-12-29T14:20:15;5.77;;;1.20;;
13560;SDS011;6852;51.686;5.314;2022-12-29T14:23:14;5.87;;;1.43;;
13560;SDS011;6852;51.686;5.314;2022-12-29T14:28:36;7.03;;;1.70;;
13560;SDS011;6852;51.686;5.314;2022-12-29T14:33:41;6.40;;;1.10;;
13560;SDS011;6852;51.686;5.314;2022-12-29T14:36:42;4.10;;;1.30;;
13560;SDS011;6852;51.686;5.314;2022-12-29T14:39:38;7.20;;;1.13;;
13560;SDS011;6852;51.686;5.314;2022-12-29T14:47:16;5.43;;;1.37;;
13560;SDS011;6852;51.686;5.314;2022-12-29T14:52:34;4.87;;;1.13;;
13560;SDS011;6852;51.686;5.314;2022-12-29T14:55:28;6.13;;;1.80;;
13560;SDS011;6852;51.686;5.314;2022-12-29T15:00:48;7.03;;;1.73;;
13560;SDS011;6852;51.686;5.314;2022-12-29T15:06:12;5.40;;;1.60;;
13560;SDS011;6852;51.686;5.314;2022-12-29T15:09:27;8.90;;;1.50;;
13560;SDS011;6852;51.686;5.314;2022-12-29T15:11:56;4.40;;;1.20;;
13560;SDS011;6852;51.686;5.314;2022-12-29T15:14:34;4.83;;;1.47;;
13560;SDS011;6852;51.686;5.314;2022-12-29T15:19:50;5.00;;;1.90;;
13560;SDS011;6852;51.686;5.314;2022-12-29T15:22:18;5.63;;;1.47;;
13560;SDS011;6852;51.686;5.314;2022-12-29T15:24:45;3.87;;;1.80;;
13560;SDS011;6852;51.686;5.314;2022-12-29T15:27:13;6.00;;;1.60;;
13560;SDS011;6852;51.686;5.314;2022-12-29T15:29:43;5.43;;;1.17;;
13560;SDS011;6852;51.686;5.314;2022-12-29T15:32:26;6.17;;;1.30;;
13560;SDS011;6852;51.686;5.314;2022-12-29T15:34:56;3.13;;;1.30;;
13560;SDS011;6852;51.686;5.314;2022-12-29T15:37:32;8.83;;;1.60;;
13560;SDS011;6852;51.686;5.314;2022-12-29T15:40:01;5.13;;;1.43;;
13560;SDS011;6852;51.686;5.314;2022-12-29T15:45:33;5.30;;;1.83;;
13560;SDS011;6852;51.686;5.314;2022-12-29T15:48:02;9.90;;;1.70;;
13560;SDS011;6852;51.686;5.314;2022-12-29T15:50:34;2.23;;;1.40;;
13560;SDS011;6852;51.686;5.314;2022-12-29T15:53:03;9.00;;;1.27;;
13560;SDS011;6852;51.686;5.314;2022-12-29T15:55:38;3.63;;;1.00;;
13560;SDS011;6852;51.686;5.314;2022-12-29T15:58:17;3.73;;;1.33;;
13560;SDS011;6852;51.686;5.314;2022-12-29T16:00:48;2.33;;;0.83;;
13560;SDS011;6852;51.686;5.314;2022-12-29T16:03:16;8.77;;;1.37;;
13560;SDS011;6852;51.686;5.314;2022-12-29T16:05:49;6.07;;;1.30;;
13560;SDS011;6852;51.686;5.314;2022-12-29T16:11:00;1.43;;;0.50;;
13560;SDS011;6852;51.686;5.314;2022-12-29T16:13:32;3.40;;;0.83;;
13560;SDS011;6852;51.686;5.314;2022-12-29T16:16:12;2.43;;;0.53;;
13560;SDS011;6852;51.686;5.314;2022-12-29T16:18:44;3.03;;;0.63;;
13560;SDS011;6852;51.686;5.314;2022-12-29T16:21:26;3.53;;;0.77;;
13560;SDS011;6852;51.686;5.314;2022-12-29T16:24:10;1.13;;;0.70;;
13560;SDS011;6852;51.686;5.314;2022-12-29T16:26:45;3.77;;;1.00;;
13560;SDS011;6852;51.686;5.314;2022-12-29T16:29:14;5.17;;;1.10;;
13560;SDS011;6852;51.686;5.314;2022-12-29T16:31:53;3.80;;;1.00;;
13560;SDS011;6852;51.686;5.314;2022-12-29T16:34:31;2.83;;;0.63;;
13560;SDS011;6852;51.686;5.314;2022-12-29T16:39:54;2.50;;;0.80;;
13560;SDS011;6852;51.686;5.314;2022-12-29T16:48:10;2.17;;;0.80;;
13560;SDS011;6852;51.686;5.314;2022-12-29T16:50:48;2.60;;;0.83;;
13560;SDS011;6852;51.686;5.314;2022-12-29T16:53:18;3.77;;;1.40;;
13560;SDS011;6852;51.686;5.314;2022-12-29T16:55:53;1.83;;;0.70;;
13560;SDS011;6852;51.686;5.314;2022-12-29T16:58:22;10.17;;;1.27;;
13560;SDS011;6852;51.686;5.314;2022-12-29T17:01:00;3.33;;;1.33;;
13560;SDS011;6852;51.686;5.314;2022-12-29T17:03:39;2.80;;;0.97;;
13560;SDS011;6852;51.686;5.314;2022-12-29T17:06:15;4.60;;;0.90;;
13560;SDS011;6852;51.686;5.314;2022-12-29T17:08:44;2.70;;;0.80;;
13560;SDS011;6852;51.686;5.314;2022-12-29T17:11:21;3.13;;;0.90;;
13560;SDS011;6852;51.686;5.314;2022-12-29T17:17:02;4.93;;;1.00;;
13560;SDS011;6852;51.686;5.314;2022-12-29T17:19:32;4.77;;;1.67;;
13560;SDS011;6852;51.686;5.314;2022-12-29T17:22:01;2.73;;;1.03;;
13560;SDS011;6852;51.686;5.314;2022-12-29T17:24:28;3.73;;;1.30;;
13560;SDS011;6852;51.686;5.314;2022-12-29T17:26:56;6.13;;;1.07;;
13560;SDS011;6852;51.686;5.314;2022-12-29T17:29:43;2.57;;;1.07;;
13560;SDS011;6852;51.686;5.314;2022-12-29T17:32:11;5.40;;;1.70;;
13560;SDS011;6852;51.686;5.314;2022-12-29T17:34:40;4.07;;;1.07;;
13560;SDS011;6852;51.686;5.314;2022-12-29T17:39:49;5.13;;;1.17;;
13560;SDS011;6852;51.686;5.314;2022-12-29T17:42:17;6.67;;;1.17;;
13560;SDS011;6852;51.686;5.314;2022-12-29T17:44:45;4.47;;;1.20;;
13560;SDS011;6852;51.686;5.314;2022-12-29T17:47:12;5.47;;;1.97;;
13560;SDS011;6852;51.686;5.314;2022-12-29T17:49:41;5.30;;;1.33;;
13560;SDS011;6852;51.686;5.314;2022-12-29T17:52:12;5.53;;;1.97;;
13560;SDS011;6852;51.686;5.314;2022-12-29T17:54:45;5.50;;;1.57;;
13560;SDS011;6852;51.686;5.314;2022-12-29T17:57:16;3.60;;;1.70;;
13560;SDS011;6852;51.686;5.314;2022-12-29T17:59:48;7.27;;;1.33;;
13560;SDS011;6852;51.686;5.314;2022-12-29T18:02:26;6.77;;;1.43;;
13560;SDS011;6852;51.686;5.314;2022-12-29T18:04:55;4.57;;;1.60;;
13560;SDS011;6852;51.686;5.314;2022-12-29T18:07:27;3.70;;;1.70;;
13560;SDS011;6852;51.686;5.314;2022-12-29T18:10:00;8.37;;;1.60;;
13560;SDS011;6852;51.686;5.314;2022-12-29T18:12:29;7.50;;;1.83;;
13560;SDS011;6852;51.686;5.314;2022-12-29T18:14:57;8.83;;;1.40;;
13560;SDS011;6852;51.686;5.314;2022-12-29T18:17:23;8.57;;;1.20;;
13560;SDS011;6852;51.686;5.314;2022-12-29T18:19:50;7.40;;;1.70;;
13560;SDS011;6852;51.686;5.314;2022-12-29T18:22:20;5.40;;;1.47;;
13560;SDS011;6852;51.686;5.314;2022-12-29T18:24:48;5.83;;;1.30;;
13560;SDS011;6852;51.686;5.314;2022-12-29T18:27:16;8.63;;;2.50;;
13560;SDS011;6852;51.686;5.314;2022-12-29T18:29:45;5.53;;;1.43;;
13560;SDS011;6852;51.686;5.314;2022-12-29T18:32:12;5.67;;;1.40;;
13560;SDS011;6852;51.686;5.314;2022-12-29T18:34:41;7.60;;;1.80;;
13560;SDS011;6852;51.686;5.314;2022-12-29T18:37:09;11.70;;;1.60;;
13560;SDS011;6852;51.686;5.314;2022-12-29T18:39:36;7.83;;;1.50;;
13560;SDS011;6852;51.686;5.314;2022-12-29T18:42:04;6.63;;;1.50;;
13560;SDS011;6852;51.686;5.314;2022-12-29T18:44:32;7.40;;;1.80;;
13560;SDS011;6852;51.686;5.314;2022-12-29T18:46:59;8.20;;;1.50;;
13560;SDS011;6852;51.686;5.314;2022-12-29T18:49:26;6.33;;;1.90;;
13560;SDS011;6852;51.686;5.314;2022-12-29T18:51:53;9.00;;;2.03;;